createdAt,value
2016-08-19T00:00:43.883Z,16.46
2016-08-19T00:01:43.854Z,16.5
2016-08-19T00:02:44.518Z,16.45
2016-08-19T00:03:43.098Z,16.41
2016-08-19T00:04:44.452Z,16.38
2016-08-19T00:05:43.731Z,16.42
2016-08-19T00:06:44.392Z,16.35
2016-08-19T00:07:43.662Z,16.41
2016-08-19T00:08:44.326Z,16.39
2016-08-19T00:09:43.598Z,16.35
2016-08-19T00:10:42.870Z,16.45
2016-08-19T00:11:43.537Z,16.42
2016-08-19T00:12:44.205Z,16.41
2016-08-19T00:13:43.479Z,16.5
2016-08-19T00:14:44.135Z,16.41
2016-08-19T00:15:44.105Z,16.45
2016-08-19T00:16:44.077Z,16.42
2016-08-19T00:17:44.050Z,16.35
2016-08-19T00:18:44.018Z,16.43
2016-08-19T00:19:43.980Z,16.41
2016-08-19T00:20:43.965Z,16.39
2016-08-19T00:21:43.915Z,16.43
2016-08-19T00:22:43.904Z,16.34
2016-08-19T00:23:43.861Z,16.39
2016-08-19T00:24:44.040Z,16.34
2016-08-19T00:25:43.096Z,16.41
2016-08-19T00:26:43.060Z,16.45
2016-08-19T00:27:43.032Z,16.42
2016-08-19T00:28:43.699Z,16.3
2016-08-19T00:29:43.669Z,16.38
2016-08-19T00:30:43.637Z,16.31
2016-08-19T00:31:43.605Z,16.33
2016-08-19T00:32:43.576Z,16.31
2016-08-19T00:33:43.540Z,16.3
2016-08-19T00:34:42.814Z,16.28
2016-08-19T00:35:43.478Z,16.28
2016-08-19T00:36:42.749Z,16.33
2016-08-19T00:37:42.726Z,16.31
2016-08-19T00:38:43.387Z,16.38
2016-08-19T00:39:43.348Z,16.31
2016-08-19T00:40:43.320Z,16.33
2016-08-19T00:41:42.595Z,16.24
2016-08-19T00:42:42.558Z,16.31
2016-08-19T00:43:43.223Z,16.28
2016-08-19T00:44:43.197Z,16.33
2016-08-19T00:45:43.167Z,16.23
2016-08-19T00:46:42.431Z,16.23
2016-08-19T00:47:43.096Z,16.21
2016-08-19T00:48:43.061Z,16.25
2016-08-19T00:49:43.038Z,16.24
2016-08-19T00:50:43.004Z,16.23
2016-08-19T00:51:41.576Z,16.23
2016-08-19T00:52:42.932Z,16.25
2016-08-19T00:53:42.902Z,16.24
2016-08-19T00:54:42.181Z,16.24
2016-08-19T00:55:42.840Z,16.24
2016-08-19T00:56:42.812Z,16.2
2016-08-19T00:57:42.782Z,16.24
2016-08-19T00:58:42.748Z,16.17
2016-08-19T00:59:42.017Z,16.31
2016-08-19T01:00:41.987Z,16.24
2016-08-19T01:01:42.655Z,16.25
2016-08-19T01:02:42.614Z,16.23
2016-08-19T01:03:42.588Z,16.17
2016-08-19T01:04:42.556Z,16.24
2016-08-19T01:05:41.830Z,16.23
2016-08-19T01:06:42.497Z,16.17
2016-08-19T01:07:42.466Z,16.21
2016-08-19T01:08:42.430Z,16.23
2016-08-19T01:09:41.704Z,16.24
2016-08-19T01:10:42.370Z,16.21
2016-08-19T01:11:42.338Z,16.25
2016-08-19T01:12:42.303Z,16.24
2016-08-19T01:13:41.588Z,16.15
2016-08-19T01:14:42.237Z,16.24
2016-08-19T01:15:42.209Z,16.2
2016-08-19T01:16:42.175Z,16.2
2016-08-19T01:17:42.145Z,16.17
2016-08-19T01:18:41.416Z,16.25
2016-08-19T01:19:41.378Z,16.2
2016-08-19T01:20:42.047Z,16.23
2016-08-19T01:21:41.320Z,16.2
2016-08-19T01:22:41.977Z,16.2
2016-08-19T01:23:41.952Z,16.21
2016-08-19T01:24:41.222Z,16.11
2016-08-19T01:25:41.890Z,16.24
2016-08-19T01:26:41.162Z,16.27
2016-08-19T01:27:41.826Z,16.17
2016-08-19T01:28:41.793Z,16.23
2016-08-19T01:29:41.060Z,16.15
2016-08-19T01:30:41.735Z,16.23
2016-08-19T01:31:41.696Z,16.23
2016-08-19T01:32:40.270Z,16.24
2016-08-19T01:33:40.947Z,16.23
2016-08-19T01:34:41.604Z,16.21
2016-08-19T01:35:41.578Z,16.28
2016-08-19T01:36:41.540Z,16.24
2016-08-19T01:37:41.518Z,16.24
2016-08-19T01:38:40.779Z,16.25
2016-08-19T01:39:41.439Z,16.25
2016-08-19T01:40:41.415Z,16.24
2016-08-19T01:41:41.383Z,16.21
2016-08-19T01:42:40.651Z,16.2
2016-08-19T01:43:41.317Z,16.3
2016-08-19T01:44:41.279Z,16.17
2016-08-19T01:45:41.252Z,16.2
2016-08-19T01:46:40.526Z,16.28
2016-08-19T01:47:40.507Z,16.23
2016-08-19T01:48:41.156Z,16.23
2016-08-19T01:49:41.120Z,16.33
2016-08-19T01:50:40.396Z,16.23
2016-08-19T01:51:40.359Z,16.31
2016-08-19T01:52:41.031Z,16.23
2016-08-19T01:53:40.302Z,16.33
2016-08-19T01:54:40.968Z,16.3
2016-08-19T01:55:40.241Z,16.25
2016-08-19T01:56:40.900Z,16.33
2016-08-19T01:57:40.869Z,16.24
2016-08-19T01:58:40.844Z,16.34
2016-08-19T01:59:40.111Z,16.35
2016-08-19T02:00:40.773Z,16.27
2016-08-19T02:01:40.747Z,16.35
2016-08-19T02:02:40.715Z,16.23
2016-08-19T02:03:40.676Z,16.23
2016-08-19T02:04:40.647Z,16.3
2016-08-19T02:05:40.616Z,16.23
2016-08-19T02:06:40.584Z,16.35
2016-08-19T02:07:40.556Z,16.23
2016-08-19T02:08:40.517Z,16.35
2016-08-19T02:09:39.800Z,16.34
2016-08-19T02:10:40.457Z,16.34
2016-08-19T02:11:40.429Z,16.27
2016-08-19T02:12:40.399Z,16.24
2016-08-19T02:13:40.367Z,16.27
2016-08-19T02:14:39.633Z,16.23
2016-08-19T02:15:40.301Z,16.24
2016-08-19T02:16:40.265Z,16.27
2016-08-19T02:17:38.848Z,16.28
2016-08-19T02:18:40.209Z,16.33
2016-08-19T02:19:40.173Z,16.39
2016-08-19T02:20:40.140Z,16.39
2016-08-19T02:21:40.111Z,16.31
2016-08-19T02:22:39.381Z,16.28
2016-08-19T02:23:40.046Z,16.31
2016-08-19T02:24:40.014Z,16.3
2016-08-19T02:25:39.283Z,16.42
2016-08-19T02:26:39.255Z,16.34
2016-08-19T02:27:39.916Z,16.35
2016-08-19T02:28:39.900Z,16.31
2016-08-19T02:29:39.857Z,16.34
2016-08-19T02:30:39.128Z,16.39
2016-08-19T02:31:39.793Z,16.38
2016-08-19T02:32:39.063Z,16.35
2016-08-19T02:33:39.032Z,16.39
2016-08-19T02:34:39.698Z,16.43
2016-08-19T02:35:39.669Z,16.46
2016-08-19T02:36:38.939Z,16.5
2016-08-19T02:37:39.604Z,16.48
2016-08-19T02:38:39.596Z,16.48
2016-08-19T02:39:39.541Z,16.52
2016-08-19T02:40:38.815Z,16.57
2016-08-19T02:41:39.477Z,16.56
2016-08-19T02:42:38.052Z,16.53
2016-08-19T02:43:38.713Z,16.53
2016-08-19T02:44:39.379Z,16.57
2016-08-19T02:45:39.348Z,16.6
2016-08-19T02:46:39.326Z,16.53
2016-08-19T02:47:39.289Z,16.58
2016-08-19T02:48:39.256Z,16.58
2016-08-19T02:49:39.221Z,16.56
2016-08-19T02:50:38.494Z,16.56
2016-08-19T02:51:39.160Z,16.58
2016-08-19T02:52:37.747Z,16.56
2016-08-19T02:53:39.109Z,16.57
2016-08-19T02:54:38.363Z,16.52
2016-08-19T02:55:38.340Z,16.56
2016-08-19T02:56:39.000Z,16.58
2016-08-19T02:57:38.971Z,16.5
2016-08-19T02:58:38.242Z,16.53
2016-08-19T02:59:38.211Z,16.48
2016-08-19T03:00:38.885Z,16.49
2016-08-19T03:01:38.847Z,16.53
2016-08-19T03:02:38.815Z,16.52
2016-08-19T03:03:38.782Z,16.48
2016-08-19T03:04:38.058Z,16.48
2016-08-19T03:05:38.024Z,16.58
2016-08-19T03:06:38.686Z,16.5
2016-08-19T03:07:38.654Z,16.6
2016-08-19T03:08:38.633Z,16.53
2016-08-19T03:09:38.586Z,16.57
2016-08-19T03:10:37.167Z,16.63
2016-08-19T03:11:38.525Z,16.53
2016-08-19T03:12:38.497Z,16.58
2016-08-19T03:13:37.783Z,16.57
2016-08-19T03:14:38.439Z,16.63
2016-08-19T03:15:38.406Z,16.64
2016-08-19T03:16:37.672Z,16.63
2016-08-19T03:17:38.340Z,16.53
2016-08-19T03:18:38.309Z,16.67
2016-08-19T03:19:38.277Z,16.67
2016-08-19T03:20:37.549Z,16.67
2016-08-19T03:21:38.214Z,16.6
2016-08-19T03:22:37.480Z,16.58
2016-08-19T03:23:38.153Z,16.56
2016-08-19T03:24:37.421Z,16.56
2016-08-19T03:25:38.084Z,16.53
2016-08-19T03:26:38.054Z,16.48
2016-08-19T03:27:36.628Z,16.43
2016-08-19T03:28:37.992Z,16.52
2016-08-19T03:29:37.272Z,16.48
2016-08-19T03:30:37.231Z,16.49
2016-08-19T03:31:37.899Z,16.45
2016-08-19T03:32:37.167Z,16.42
2016-08-19T03:33:37.141Z,16.35
2016-08-19T03:34:37.107Z,16.39
2016-08-19T03:35:37.769Z,16.35
2016-08-19T03:36:37.039Z,16.34
2016-08-19T03:37:37.707Z,16.35
2016-08-19T03:38:37.679Z,16.34
2016-08-19T03:39:37.645Z,16.31
2016-08-19T03:40:37.615Z,16.31
2016-08-19T03:41:36.187Z,16.3
2016-08-19T03:42:36.848Z,16.25
2016-08-19T03:43:37.518Z,16.28
2016-08-19T03:44:37.489Z,16.34
2016-08-19T03:45:36.760Z,16.23
2016-08-19T03:46:36.741Z,16.24
2016-08-19T03:47:36.691Z,16.21
2016-08-19T03:48:37.358Z,16.21
2016-08-19T03:49:37.329Z,16.23
2016-08-19T03:50:36.605Z,16.25
2016-08-19T03:51:37.269Z,16.15
2016-08-19T03:52:37.238Z,16.17
2016-08-19T03:53:37.206Z,16.11
2016-08-19T03:54:36.470Z,16.08
2016-08-19T03:55:37.144Z,16.07
2016-08-19T03:56:36.412Z,15.97
2016-08-19T03:57:35.685Z,16.09
2016-08-19T03:58:37.042Z,16
2016-08-19T03:59:37.009Z,16.01
2016-08-19T04:00:36.284Z,15.96
2016-08-19T04:01:36.948Z,15.96
2016-08-19T04:02:36.917Z,15.97
2016-08-19T04:03:36.899Z,15.94
2016-08-19T04:04:36.849Z,16.01
2016-08-19T04:05:36.126Z,16.01
2016-08-19T04:06:36.792Z,16.05
2016-08-19T04:07:36.757Z,16.07
2016-08-19T04:08:36.727Z,16.08
2016-08-19T04:09:36.688Z,16.09
2016-08-19T04:10:35.965Z,16.12
2016-08-19T04:11:36.628Z,16.24
2016-08-19T04:12:36.592Z,16.12
2016-08-19T04:13:35.868Z,16.12
2016-08-19T04:14:35.832Z,16.09
2016-08-19T04:15:36.503Z,16.08
2016-08-19T04:16:36.471Z,16.12
2016-08-19T04:17:36.440Z,16.09
2016-08-19T04:18:36.407Z,16
2016-08-19T04:19:36.377Z,16.11
2016-08-19T04:20:36.345Z,16.14
2016-08-19T04:21:36.309Z,16.08
2016-08-19T04:22:35.580Z,16.12
2016-08-19T04:23:35.555Z,16.07
2016-08-19T04:24:36.412Z,16.11
2016-08-19T04:25:35.511Z,16.15
2016-08-19T04:26:36.154Z,16.17
2016-08-19T04:27:36.116Z,16.24
2016-08-19T04:28:36.089Z,16.21
2016-08-19T04:29:36.063Z,16.25
2016-08-19T04:30:35.323Z,16.2
2016-08-19T04:31:35.990Z,16.23
2016-08-19T04:32:35.957Z,16.15
2016-08-19T04:33:35.231Z,16.27
2016-08-19T04:34:35.897Z,16.15
2016-08-19T04:35:35.859Z,16.21
2016-08-19T04:36:35.135Z,16.24
2016-08-19T04:37:35.800Z,16.2
2016-08-19T04:38:35.767Z,16.27
2016-08-19T04:39:35.736Z,16.21
2016-08-19T04:40:35.005Z,16.28
2016-08-19T04:41:35.673Z,16.24
2016-08-19T04:42:34.947Z,16.25
2016-08-19T04:43:35.609Z,16.24
2016-08-19T04:44:35.573Z,16.2
2016-08-19T04:45:35.559Z,16.35
2016-08-19T04:46:35.513Z,16.28
2016-08-19T04:47:35.483Z,16.33
2016-08-19T04:48:34.752Z,16.35
2016-08-19T04:49:34.720Z,16.3
2016-08-19T04:50:34.693Z,16.33
2016-08-19T04:51:35.355Z,16.39
2016-08-19T04:52:34.628Z,16.34
2016-08-19T04:53:34.591Z,16.43
2016-08-19T04:54:33.863Z,16.39
2016-08-19T04:55:35.225Z,16.41
2016-08-19T04:56:35.187Z,16.5
2016-08-19T04:57:35.159Z,16.46
2016-08-19T04:58:34.431Z,16.5
2016-08-19T04:59:34.402Z,16.42
2016-08-19T05:00:34.371Z,16.45
2016-08-19T05:01:35.033Z,16.5
2016-08-19T05:02:35.002Z,16.5
2016-08-19T05:03:34.278Z,16.58
2016-08-19T05:04:34.245Z,16.49
2016-08-19T05:05:34.919Z,16.58
2016-08-19T05:06:34.877Z,16.6
2016-08-19T05:07:34.150Z,16.58
2016-08-19T05:08:34.811Z,16.56
2016-08-19T05:09:34.085Z,16.64
2016-08-19T05:10:34.752Z,16.7
2016-08-19T05:11:34.716Z,16.7
2016-08-19T05:12:34.682Z,16.73
2016-08-19T05:13:33.263Z,16.73
2016-08-19T05:14:34.623Z,16.79
2016-08-19T05:15:34.595Z,16.81
2016-08-19T05:16:34.563Z,16.78
2016-08-19T05:17:34.525Z,16.81
2016-08-19T05:18:33.800Z,16.94
2016-08-19T05:19:33.788Z,16.94
2016-08-19T05:20:33.745Z,16.94
2016-08-19T05:21:34.412Z,16.91
2016-08-19T05:22:34.373Z,17
2016-08-19T05:23:34.343Z,16.94
2016-08-19T05:24:33.615Z,17.04
2016-08-19T05:25:33.580Z,17.07
2016-08-19T05:26:34.249Z,17.07
2016-08-19T05:27:33.517Z,17.12
2016-08-19T05:28:33.487Z,17.11
2016-08-19T05:29:34.147Z,17.22
2016-08-19T05:30:33.419Z,17.25
2016-08-19T05:31:34.087Z,17.23
2016-08-19T05:32:34.076Z,17.34
2016-08-19T05:33:34.025Z,17.3
2016-08-19T05:34:33.300Z,17.34
2016-08-19T05:35:33.968Z,17.38
2016-08-19T05:36:33.934Z,17.28
2016-08-19T05:37:33.202Z,17.36
2016-08-19T05:38:33.873Z,17.44
2016-08-19T05:39:33.839Z,17.59
2016-08-19T05:40:33.109Z,17.46
2016-08-19T05:41:33.076Z,17.51
2016-08-19T05:42:33.746Z,17.51
2016-08-19T05:43:33.020Z,17.51
2016-08-19T05:44:33.677Z,17.48
2016-08-19T05:45:33.654Z,17.49
2016-08-19T05:46:33.619Z,17.56
2016-08-19T05:47:33.594Z,17.63
2016-08-19T05:48:33.553Z,17.64
2016-08-19T05:49:32.134Z,17.72
2016-08-19T05:50:33.503Z,17.86
2016-08-19T05:51:33.470Z,17.78
2016-08-19T05:52:33.440Z,17.82
2016-08-19T05:53:32.710Z,17.81
2016-08-19T05:54:33.368Z,17.75
2016-08-19T05:55:31.968Z,17.77
2016-08-19T05:56:32.617Z,17.79
2016-08-19T05:57:33.285Z,17.82
2016-08-19T05:58:32.556Z,17.81
2016-08-19T05:59:33.216Z,17.93
2016-08-19T06:00:33.184Z,17.89
2016-08-19T06:01:33.161Z,18
2016-08-19T06:02:33.135Z,18.1
2016-08-19T06:03:33.099Z,18.08
2016-08-19T06:04:33.069Z,18.1
2016-08-19T06:05:33.044Z,18.05
2016-08-19T06:06:33.009Z,18.11
2016-08-19T06:07:31.577Z,18.07
2016-08-19T06:08:32.246Z,17.99
2016-08-19T06:09:32.912Z,17.93
2016-08-19T06:10:32.190Z,18.07
2016-08-19T06:11:32.851Z,18.07
2016-08-19T06:12:32.124Z,18.05
2016-08-19T06:13:32.788Z,18.12
2016-08-19T06:14:32.064Z,17.95
2016-08-19T06:15:32.730Z,18.1
2016-08-19T06:16:32.702Z,18.11
2016-08-19T06:17:32.665Z,18.11
2016-08-19T06:18:32.636Z,18.11
2016-08-19T06:19:31.916Z,18.02
2016-08-19T06:20:31.876Z,18.05
2016-08-19T06:21:32.550Z,18.21
2016-08-19T06:22:31.824Z,18.33
2016-08-19T06:23:32.496Z,18.29
2016-08-19T06:24:32.453Z,18.36
2016-08-19T06:25:32.420Z,18.32
2016-08-19T06:26:32.393Z,18.41
2016-08-19T06:27:32.364Z,18.44
2016-08-19T06:28:31.648Z,18.55
2016-08-19T06:29:31.608Z,18.65
2016-08-19T06:30:32.269Z,18.85
2016-08-19T06:31:32.243Z,18.84
2016-08-19T06:32:30.823Z,19.21
2016-08-19T06:33:32.180Z,19.4
2016-08-19T06:34:32.148Z,19.43
2016-08-19T06:35:31.428Z,19.55
2016-08-19T06:36:32.093Z,19.73
2016-08-19T06:37:31.367Z,19.8
2016-08-19T06:38:32.034Z,19.91
2016-08-19T06:39:31.310Z,20.32
2016-08-19T06:40:31.971Z,20.82
2016-08-19T06:41:31.246Z,21.53
2016-08-19T06:42:31.920Z,22.22
2016-08-19T06:43:31.888Z,22.86
2016-08-19T06:44:31.857Z,23.55
2016-08-19T06:45:31.836Z,24.18
2016-08-19T06:46:31.821Z,24.37
2016-08-19T06:47:31.780Z,24.83
2016-08-19T06:48:31.053Z,25.35
2016-08-19T06:49:31.724Z,26.02
2016-08-19T06:50:31.701Z,26.52
2016-08-19T06:51:31.673Z,27.07
2016-08-19T06:52:31.658Z,27.46
2016-08-19T06:53:31.622Z,28.03
2016-08-19T06:54:30.903Z,28.34
2016-08-19T06:55:30.880Z,28.4
2016-08-19T06:56:30.851Z,28.4
2016-08-19T06:57:31.522Z,28.48
2016-08-19T06:58:31.502Z,28.37
2016-08-19T06:59:30.778Z,28.51
2016-08-19T07:00:30.778Z,28.93
2016-08-19T07:01:31.435Z,29.39
2016-08-19T07:02:30.711Z,29.8
2016-08-19T07:03:30.693Z,30.2
2016-08-19T07:04:31.364Z,30.49
2016-08-19T07:05:30.649Z,30.46
2016-08-19T07:06:31.320Z,30.42
2016-08-19T07:07:31.316Z,30.64
2016-08-19T07:08:31.274Z,31.19
2016-08-19T07:09:31.253Z,31.72
2016-08-19T07:10:30.548Z,32.04
2016-08-19T07:11:30.519Z,32.55
2016-08-19T07:12:31.187Z,32.94
2016-08-19T07:13:30.482Z,32.69
2016-08-19T07:14:31.146Z,32.29
2016-08-19T07:15:30.430Z,31.69
2016-08-19T07:16:31.114Z,31.02
2016-08-19T07:17:30.384Z,30.61
2016-08-19T07:18:30.365Z,30.08
2016-08-19T07:19:29.650Z,29.58
2016-08-19T07:20:29.628Z,29.18
2016-08-19T07:21:30.303Z,28.67
2016-08-19T07:22:30.980Z,28.33
2016-08-19T07:23:29.566Z,28.17
2016-08-19T07:24:30.933Z,28.02
2016-08-19T07:25:30.219Z,27.5
2016-08-19T07:26:30.886Z,27.09
2016-08-19T07:27:30.172Z,26.5
2016-08-19T07:28:30.145Z,26.15
2016-08-19T07:29:30.819Z,25.88
2016-08-19T07:30:30.798Z,25.62
2016-08-19T07:31:30.078Z,25.42
2016-08-19T07:32:30.059Z,25.17
2016-08-19T07:33:30.030Z,24.99
2016-08-19T07:34:30.021Z,24.81
2016-08-19T07:35:30.676Z,24.61
2016-08-19T07:36:30.656Z,24.87
2016-08-19T07:37:29.929Z,26.02
2016-08-19T07:38:29.907Z,27.72
2016-08-19T07:39:30.577Z,29.16
2016-08-19T07:40:29.860Z,30.15
2016-08-19T07:41:29.834Z,30.61
2016-08-19T07:42:30.507Z,31.29
2016-08-19T07:43:30.490Z,31.69
2016-08-19T07:44:30.463Z,32.52
2016-08-19T07:45:30.450Z,33.68
2016-08-19T07:46:29.717Z,34.81
2016-08-19T07:47:29.693Z,35.6
2016-08-19T07:48:29.673Z,36.35
2016-08-19T07:49:29.662Z,36.8
2016-08-19T07:50:29.628Z,37.55
2016-08-19T07:51:30.315Z,38.31
2016-08-19T07:52:29.588Z,39.06
2016-08-19T07:53:28.878Z,39.38
2016-08-19T07:54:29.542Z,39.16
2016-08-19T07:55:30.229Z,38.79
2016-08-19T07:56:30.225Z,39.17
2016-08-19T07:57:29.487Z,40.08
2016-08-19T07:58:30.165Z,40.73
2016-08-19T07:59:29.453Z,40.27
2016-08-19T08:00:29.432Z,39.73
2016-08-19T08:01:30.107Z,38.78
2016-08-19T08:02:30.088Z,37.81
2016-08-19T08:03:30.075Z,36.83
2016-08-19T08:04:30.053Z,35.93
2016-08-19T08:05:30.048Z,35.06
2016-08-19T08:06:29.316Z,34.25
2016-08-19T08:07:29.297Z,33.56
2016-08-19T08:08:29.982Z,32.94
2016-08-19T08:09:28.557Z,32.93
2016-08-19T08:10:28.541Z,34.1
2016-08-19T08:11:29.915Z,35.77
2016-08-19T08:12:29.899Z,36.87
2016-08-19T08:13:28.480Z,37.28
2016-08-19T08:14:29.855Z,37.49
2016-08-19T08:15:28.443Z,38.38
2016-08-19T08:16:29.118Z,39.01
2016-08-19T08:17:29.798Z,39.21
2016-08-19T08:18:29.083Z,39.07
2016-08-19T08:19:29.061Z,39.4
2016-08-19T08:20:29.743Z,40.01
2016-08-19T08:21:29.031Z,40.87
2016-08-19T08:22:29.014Z,41.49
2016-08-19T08:23:29.014Z,41.33
2016-08-19T08:24:29.664Z,41.49
2016-08-19T08:25:28.955Z,40.69
2016-08-19T08:26:29.631Z,39.38
2016-08-19T08:27:29.615Z,38.18
2016-08-19T08:28:28.899Z,37.09
2016-08-19T08:29:29.594Z,36.22
2016-08-19T08:30:29.568Z,35.31
2016-08-19T08:31:28.846Z,35.21
2016-08-19T08:32:29.521Z,36.16
2016-08-19T08:33:28.807Z,37.49
2016-08-19T08:34:28.791Z,38.74
2016-08-19T08:35:28.768Z,40
2016-08-19T08:36:28.756Z,41.01
2016-08-19T08:37:28.732Z,41.8
2016-08-19T08:38:29.410Z,42.54
2016-08-19T08:39:29.391Z,43.1
2016-08-19T08:40:27.987Z,43.49
2016-08-19T08:41:29.354Z,43.73
2016-08-19T08:42:28.650Z,43.94
2016-08-19T08:43:29.323Z,44.39
2016-08-19T08:44:28.611Z,44.71
2016-08-19T08:45:29.298Z,44.85
2016-08-19T08:46:29.276Z,44.86
2016-08-19T08:47:27.863Z,44.98
2016-08-19T08:48:28.546Z,44.32
2016-08-19T08:49:29.228Z,42.83
2016-08-19T08:50:29.211Z,41.91
2016-08-19T08:51:28.502Z,41.66
2016-08-19T08:52:28.489Z,41.74
2016-08-19T08:53:29.167Z,40.89
2016-08-19T08:54:29.147Z,40.16
2016-08-19T08:55:29.128Z,39.13
2016-08-19T08:56:29.112Z,38.07
2016-08-19T08:57:28.401Z,37.82
2016-08-19T08:58:29.082Z,37.93
2016-08-19T08:59:29.071Z,38.41
2016-08-19T09:00:28.351Z,39.22
2016-08-19T09:01:29.029Z,40.07
2016-08-19T09:02:29.026Z,40.89
2016-08-19T09:03:28.296Z,41.42
2016-08-19T09:04:28.291Z,41.83
2016-08-19T09:05:28.264Z,42.39
2016-08-19T09:06:28.941Z,43.22
2016-08-19T09:07:28.231Z,43.97
2016-08-19T09:08:28.916Z,44.58
2016-08-19T09:09:28.198Z,44.79
2016-08-19T09:10:28.184Z,44.92
2016-08-19T09:11:28.165Z,44.4
2016-08-19T09:12:27.456Z,43.75
2016-08-19T09:13:28.835Z,43.76
2016-08-19T09:14:28.132Z,44.21
2016-08-19T09:15:28.109Z,44.48
2016-08-19T09:16:28.792Z,44.18
2016-08-19T09:17:28.078Z,44.24
2016-08-19T09:18:28.765Z,44.26
2016-08-19T09:19:28.051Z,44.51
2016-08-19T09:20:28.735Z,44.24
2016-08-19T09:21:28.723Z,44.4
2016-08-19T09:22:28.708Z,44.75
2016-08-19T09:23:28.690Z,45.08
2016-08-19T09:24:28.679Z,44.44
2016-08-19T09:25:28.676Z,43.6
2016-08-19T09:26:27.955Z,42.86
2016-08-19T09:27:27.942Z,41.89
2016-08-19T09:28:28.622Z,40.92
2016-08-19T09:29:28.610Z,40.5
2016-08-19T09:30:28.598Z,39.84
2016-08-19T09:31:28.582Z,39.36
2016-08-19T09:32:28.574Z,38.81
2016-08-19T09:33:27.865Z,38.18
2016-08-19T09:34:27.865Z,37.4
2016-08-19T09:35:27.821Z,36.72
2016-08-19T09:36:28.502Z,36.29
2016-08-19T09:37:28.487Z,35.93
2016-08-19T09:38:27.775Z,35.77
2016-08-19T09:39:27.752Z,35.65
2016-08-19T09:40:28.432Z,35.26
2016-08-19T09:41:27.718Z,34.96
2016-08-19T09:42:28.395Z,34.88
2016-08-19T09:43:28.377Z,35.29
2016-08-19T09:44:27.659Z,36
2016-08-19T09:45:27.647Z,36.25
2016-08-19T09:46:27.627Z,36.09
2016-08-19T09:47:27.611Z,36.05
2016-08-19T09:48:27.592Z,35.94
2016-08-19T09:49:27.573Z,35.75
2016-08-19T09:50:28.253Z,35.52
2016-08-19T09:51:28.225Z,35.33
2016-08-19T09:52:27.514Z,34.97
2016-08-19T09:53:27.492Z,34.47
2016-08-19T09:54:27.479Z,33.38
2016-08-19T09:55:28.155Z,33
2016-08-19T09:56:28.138Z,32.89
2016-08-19T09:57:28.118Z,33.07
2016-08-19T09:58:28.096Z,33.31
2016-08-19T09:59:27.389Z,33.6
2016-08-19T10:00:28.060Z,33.63
2016-08-19T10:01:28.047Z,33.73
2016-08-19T10:02:28.018Z,34.08
2016-08-19T10:03:28.003Z,34.22
2016-08-19T10:04:27.983Z,34.61
2016-08-19T10:05:27.263Z,34.89
2016-08-19T10:06:26.544Z,35.06
2016-08-19T10:07:26.529Z,34.94
2016-08-19T10:08:26.509Z,34.92
2016-08-19T10:09:26.489Z,34.82
2016-08-19T10:10:27.161Z,34.31
2016-08-19T10:11:27.139Z,33.73
2016-08-19T10:12:27.123Z,33.41
2016-08-19T10:13:27.103Z,33.38
2016-08-19T10:14:27.085Z,33.39
2016-08-19T10:15:27.762Z,33.15
2016-08-19T10:16:27.742Z,32.93
2016-08-19T10:17:27.030Z,32.6
2016-08-19T10:18:27.007Z,32.26
2016-08-19T10:19:26.986Z,31.95
2016-08-19T10:20:27.661Z,31.89
2016-08-19T10:21:26.939Z,31.57
2016-08-19T10:22:27.622Z,31.28
2016-08-19T10:23:27.600Z,31.21
2016-08-19T10:24:26.891Z,31.13
2016-08-19T10:25:27.554Z,31.13
2016-08-19T10:26:26.837Z,31.12
2016-08-19T10:27:26.124Z,31.2
2016-08-19T10:28:26.800Z,31.21
2016-08-19T10:29:27.475Z,31.31
2016-08-19T10:30:27.458Z,31.5
2016-08-19T10:31:27.445Z,31.58
2016-08-19T10:32:26.015Z,31.58
2016-08-19T10:33:27.390Z,31.57
2016-08-19T10:34:27.376Z,31.58
2016-08-19T10:35:27.348Z,31.47
2016-08-19T10:36:26.629Z,31.61
2016-08-19T10:37:27.304Z,31.73
2016-08-19T10:38:26.583Z,31.8
2016-08-19T10:39:26.565Z,31.61
2016-08-19T10:40:27.241Z,31.36
2016-08-19T10:41:27.215Z,31.32
2016-08-19T10:42:26.499Z,31.34
2016-08-19T10:43:26.477Z,31.32
2016-08-19T10:44:27.152Z,31.53
2016-08-19T10:45:27.132Z,31.93
2016-08-19T10:46:26.413Z,32.37
2016-08-19T10:47:27.090Z,32.63
2016-08-19T10:48:27.068Z,32.97
2016-08-19T10:49:27.048Z,33.32
2016-08-19T10:50:26.330Z,33.66
2016-08-19T10:51:26.307Z,33.68
2016-08-19T10:52:26.987Z,33.56
2016-08-19T10:53:26.963Z,33.34
2016-08-19T10:54:26.938Z,32.89
2016-08-19T10:55:26.224Z,32.44
2016-08-19T10:56:26.203Z,31.63
2016-08-19T10:57:26.179Z,31.61
2016-08-19T10:58:26.860Z,31.84
2016-08-19T10:59:26.833Z,31.91
2016-08-19T11:00:26.128Z,31.93
2016-08-19T11:01:26.804Z,32.01
2016-08-19T11:02:26.073Z,31.78
2016-08-19T11:03:26.763Z,31.48
2016-08-19T11:04:26.730Z,31.47
2016-08-19T11:05:26.709Z,31.72
2016-08-19T11:06:25.295Z,32.23
2016-08-19T11:07:26.666Z,32.43
2016-08-19T11:08:25.247Z,32.65
2016-08-19T11:09:25.924Z,33.42
2016-08-19T11:10:26.600Z,33.59
2016-08-19T11:11:25.885Z,33.34
2016-08-19T11:12:26.555Z,33.03
2016-08-19T11:13:25.844Z,32.65
2016-08-19T11:14:26.517Z,32.43
2016-08-19T11:15:25.803Z,32.35
2016-08-19T11:16:25.771Z,32.3
2016-08-19T11:17:26.452Z,32.33
2016-08-19T11:18:26.431Z,32.25
2016-08-19T11:19:26.416Z,31.93
2016-08-19T11:20:26.390Z,31.73
2016-08-19T11:21:24.969Z,31.69
2016-08-19T11:22:25.646Z,31.54
2016-08-19T11:23:26.326Z,31.46
2016-08-19T11:24:25.619Z,31.39
2016-08-19T11:25:26.285Z,31.61
2016-08-19T11:26:26.255Z,31.62
2016-08-19T11:27:25.535Z,31.32
2016-08-19T11:28:25.516Z,31.12
2016-08-19T11:29:26.191Z,30.62
2016-08-19T11:30:25.473Z,30.42
2016-08-19T11:31:25.450Z,30.26
2016-08-19T11:32:25.424Z,30.23
2016-08-19T11:33:26.103Z,29.92
2016-08-19T11:34:26.082Z,29.63
2016-08-19T11:35:26.063Z,29.28
2016-08-19T11:36:26.035Z,28.96
2016-08-19T11:37:26.026Z,28.48
2016-08-19T11:38:24.594Z,27.9
2016-08-19T11:39:25.970Z,27.59
2016-08-19T11:40:25.254Z,27.54
2016-08-19T11:41:25.933Z,27.6
2016-08-19T11:42:25.197Z,27.62
2016-08-19T11:43:25.877Z,27.81
2016-08-19T11:44:25.863Z,27.96
2016-08-19T11:45:25.835Z,27.93
2016-08-19T11:46:25.114Z,27.96
2016-08-19T11:47:25.786Z,27.97
2016-08-19T11:48:25.062Z,28.34
2016-08-19T11:49:25.734Z,28.46
2016-08-19T11:50:25.015Z,28.8
2016-08-19T11:51:24.993Z,28.93
2016-08-19T11:52:24.967Z,28.98
2016-08-19T11:53:25.639Z,29.06
2016-08-19T11:54:24.922Z,29.19
2016-08-19T11:55:24.899Z,29.33
2016-08-19T11:56:25.576Z,29.45
2016-08-19T11:57:25.545Z,29.41
2016-08-19T11:58:25.520Z,29.51
2016-08-19T11:59:25.495Z,29.55
2016-08-19T12:00:25.474Z,29.55
2016-08-19T12:01:24.757Z,29.6
2016-08-19T12:02:25.429Z,29.61
2016-08-19T12:03:25.410Z,29.61
2016-08-19T12:04:25.380Z,29.55
2016-08-19T12:05:25.362Z,29.37
2016-08-19T12:06:25.351Z,29.41
2016-08-19T12:07:25.306Z,29.27
2016-08-19T12:08:25.293Z,29.31
2016-08-19T12:09:25.263Z,29.21
2016-08-19T12:10:24.543Z,29.06
2016-08-19T12:11:25.214Z,29.15
2016-08-19T12:12:24.497Z,29.21
2016-08-19T12:13:24.470Z,29.19
2016-08-19T12:14:25.146Z,29.21
2016-08-19T12:15:25.148Z,29.06
2016-08-19T12:16:24.406Z,29.04
2016-08-19T12:17:24.388Z,29.04
2016-08-19T12:18:23.655Z,29.02
2016-08-19T12:19:25.022Z,28.93
2016-08-19T12:20:25.001Z,28.61
2016-08-19T12:21:23.580Z,28.46
2016-08-19T12:22:24.257Z,28.46
2016-08-19T12:23:24.927Z,28.4
2016-08-19T12:24:24.899Z,28.22
2016-08-19T12:25:24.883Z,28.06
2016-08-19T12:26:24.857Z,27.94
2016-08-19T12:27:24.138Z,27.9
2016-08-19T12:28:23.421Z,27.85
2016-08-19T12:29:24.087Z,27.93
2016-08-19T12:30:24.756Z,28
2016-08-19T12:31:24.738Z,27.94
2016-08-19T12:32:24.712Z,28
2016-08-19T12:33:24.688Z,28.09
2016-08-19T12:34:24.658Z,28.15
2016-08-19T12:35:23.943Z,28.19
2016-08-19T12:36:24.616Z,28.21
2016-08-19T12:37:23.891Z,28.27
2016-08-19T12:38:23.867Z,28.31
2016-08-19T12:39:23.845Z,28.31
2016-08-19T12:40:23.820Z,28.3
2016-08-19T12:41:24.500Z,28.31
2016-08-19T12:42:24.466Z,28.33
2016-08-19T12:43:24.435Z,28.49
2016-08-19T12:44:24.422Z,28.54
2016-08-19T12:45:23.696Z,28.61
2016-08-19T12:46:23.671Z,28.67
2016-08-19T12:47:24.353Z,28.74
2016-08-19T12:48:23.627Z,28.9
2016-08-19T12:49:22.914Z,28.93
2016-08-19T12:50:23.573Z,29.06
2016-08-19T12:51:23.550Z,29.14
2016-08-19T12:52:24.221Z,29.24
2016-08-19T12:53:23.503Z,29.34
2016-08-19T12:54:23.477Z,29.55
2016-08-19T12:55:24.150Z,29.58